sensor_id;sensor_type;location;lat;lon;timestamp;temperature;humidity
48551;DHT22;34397;51.176;6.738;2022-12-07T00:00:19;3.70;76.30
48551;DHT22;34397;51.176;6.738;2022-12-07T00:02:51;3.70;76.30
48551;DHT22;34397;51.176;6.738;2022-12-07T00:05:24;3.70;76.30
48551;DHT22;34397;51.176;6.738;2022-12-07T00:07:56;3.70;76.10
48551;DHT22;34397;51.176;6.738;2022-12-07T00:10:28;3.70;76.50
48551;DHT22;34397;51.176;6.738;2022-12-07T00:13:00;3.70;75.90
48551;DHT22;34397;51.176;6.738;2022-12-07T00:15:33;3.70;76.00
48551;DHT22;34397;51.176;6.738;2022-12-07T00:18:06;3.70;76.10
48551;DHT22;34397;51.176;6.738;2022-12-07T00:20:39;3.70;76.10
48551;DHT22;34397;51.176;6.738;2022-12-07T00:23:11;3.70;76.10
48551;DHT22;34397;51.176;6.738;2022-12-07T00:25:42;3.70;76.50
48551;DHT22;34397;51.176;6.738;2022-12-07T00:28:14;3.70;76.20
48551;DHT22;34397;51.176;6.738;2022-12-07T00:30:46;3.60;76.30
48551;DHT22;34397;51.176;6.738;2022-12-07T00:33:18;3.60;76.30
48551;DHT22;34397;51.176;6.738;2022-12-07T00:35:56;3.60;76.50
48551;DHT22;34397;51.176;6.738;2022-12-07T00:38:29;3.60;76.40
48551;DHT22;34397;51.176;6.738;2022-12-07T00:41:04;3.60;76.40
48551;DHT22;34397;51.176;6.738;2022-12-07T00:43:37;3.60;76.40
48551;DHT22;34397;51.176;6.738;2022-12-07T00:46:09;3.60;76.40
48551;DHT22;34397;51.176;6.738;2022-12-07T00:48:42;3.60;76.70
48551;DHT22;34397;51.176;6.738;2022-12-07T00:51:16;3.60;76.70
48551;DHT22;34397;51.176;6.738;2022-12-07T00:53:50;3.60;76.70
48551;DHT22;34397;51.176;6.738;2022-12-07T00:56:24;3.60;76.60
48551;DHT22;34397;51.176;6.738;2022-12-07T00:58:58;3.60;76.60
48551;DHT22;34397;51.176;6.738;2022-12-07T01:01:33;3.60;76.50
48551;DHT22;34397;51.176;6.738;2022-12-07T01:04:06;3.60;76.40
48551;DHT22;34397;51.176;6.738;2022-12-07T01:06:40;3.70;76.50
48551;DHT22;34397;51.176;6.738;2022-12-07T01:09:12;3.60;77.00
48551;DHT22;34397;51.176;6.738;2022-12-07T01:11:43;3.70;76.50
48551;DHT22;34397;51.176;6.738;2022-12-07T01:14:15;3.60;76.40
48551;DHT22;34397;51.176;6.738;2022-12-07T01:16:47;3.60;76.50
48551;DHT22;34397;51.176;6.738;2022-12-07T01:19:19;3.60;76.60
48551;DHT22;34397;51.176;6.738;2022-12-07T01:21:52;3.60;76.50
48551;DHT22;34397;51.176;6.738;2022-12-07T01:24:24;3.60;76.60
48551;DHT22;34397;51.176;6.738;2022-12-07T01:26:55;3.60;77.10
48551;DHT22;34397;51.176;6.738;2022-12-07T01:29:27;3.60;76.70
48551;DHT22;34397;51.176;6.738;2022-12-07T01:31:59;3.60;76.80
48551;DHT22;34397;51.176;6.738;2022-12-07T01:34:31;3.60;76.80
48551;DHT22;34397;51.176;6.738;2022-12-07T01:37:04;3.60;77.00
48551;DHT22;34397;51.176;6.738;2022-12-07T01:39:36;3.60;76.90
48551;DHT22;34397;51.176;6.738;2022-12-07T01:42:09;3.60;77.20
48551;DHT22;34397;51.176;6.738;2022-12-07T01:45:20;3.60;76.50
48551;DHT22;34397;51.176;6.738;2022-12-07T01:48:10;3.60;76.70
48551;DHT22;34397;51.176;6.738;2022-12-07T01:50:44;3.60;76.70
48551;DHT22;34397;51.176;6.738;2022-12-07T01:53:18;3.50;76.70
48551;DHT22;34397;51.176;6.738;2022-12-07T01:55:52;3.60;77.00
48551;DHT22;34397;51.176;6.738;2022-12-07T01:58:25;3.50;77.00
48551;DHT22;34397;51.176;6.738;2022-12-07T02:00:57;3.50;77.00
48551;DHT22;34397;51.176;6.738;2022-12-07T02:03:32;3.50;77.00
48551;DHT22;34397;51.176;6.738;2022-12-07T02:06:08;3.50;77.10
48551;DHT22;34397;51.176;6.738;2022-12-07T02:08:43;3.50;77.10
48551;DHT22;34397;51.176;6.738;2022-12-07T02:11:16;3.50;77.10
48551;DHT22;34397;51.176;6.738;2022-12-07T02:13:48;3.50;77.10
48551;DHT22;34397;51.176;6.738;2022-12-07T02:16:27;3.50;77.10
48551;DHT22;34397;51.176;6.738;2022-12-07T02:22:44;3.50;77.20
48551;DHT22;34397;51.176;6.738;2022-12-07T02:25:33;3.50;77.00
48551;DHT22;34397;51.176;6.738;2022-12-07T02:28:20;3.50;77.00
48551;DHT22;34397;51.176;6.738;2022-12-07T02:31:02;3.50;77.10
48551;DHT22;34397;51.176;6.738;2022-12-07T02:33:40;3.40;77.10
48551;DHT22;34397;51.176;6.738;2022-12-07T02:36:17;3.50;77.10
48551;DHT22;34397;51.176;6.738;2022-12-07T02:41:27;3.40;77.20
48551;DHT22;34397;51.176;6.738;2022-12-07T02:44:03;3.40;77.20
48551;DHT22;34397;51.176;6.738;2022-12-07T02:46:42;3.40;77.30
48551;DHT22;34397;51.176;6.738;2022-12-07T02:49:15;3.40;77.20
48551;DHT22;34397;51.176;6.738;2022-12-07T02:51:47;3.40;77.30
48551;DHT22;34397;51.176;6.738;2022-12-07T02:54:20;3.40;77.40
48551;DHT22;34397;51.176;6.738;2022-12-07T02:56:59;3.40;77.20
48551;DHT22;34397;51.176;6.738;2022-12-07T02:59:42;3.40;77.30
48551;DHT22;34397;51.176;6.738;2022-12-07T03:02:28;3.40;77.90
48551;DHT22;34397;51.176;6.738;2022-12-07T03:05:13;3.40;77.40
48551;DHT22;34397;51.176;6.738;2022-12-07T03:07:58;3.40;77.30
48551;DHT22;34397;51.176;6.738;2022-12-07T03:10:40;3.40;77.30
48551;DHT22;34397;51.176;6.738;2022-12-07T03:13:19;3.40;77.30
48551;DHT22;34397;51.176;6.738;2022-12-07T03:15:58;3.40;77.20
48551;DHT22;34397;51.176;6.738;2022-12-07T03:18:38;3.40;77.20
48551;DHT22;34397;51.176;6.738;2022-12-07T03:21:14;3.40;77.30
48551;DHT22;34397;51.176;6.738;2022-12-07T03:23:51;3.40;77.30
48551;DHT22;34397;51.176;6.738;2022-12-07T03:26:30;3.40;77.30
48551;DHT22;34397;51.176;6.738;2022-12-07T03:29:06;3.40;77.20
48551;DHT22;34397;51.176;6.738;2022-12-07T03:31:41;3.40;77.00
48551;DHT22;34397;51.176;6.738;2022-12-07T03:34:21;3.40;77.10
48551;DHT22;34397;51.176;6.738;2022-12-07T03:37:02;3.40;77.00
48551;DHT22;34397;51.176;6.738;2022-12-07T03:39:39;3.30;76.90
48551;DHT22;34397;51.176;6.738;2022-12-07T03:42:12;3.30;76.80
48551;DHT22;34397;51.176;6.738;2022-12-07T03:44:44;3.30;76.90
48551;DHT22;34397;51.176;6.738;2022-12-07T03:47:22;3.30;77.00
48551;DHT22;34397;51.176;6.738;2022-12-07T03:50:04;3.30;76.80
48551;DHT22;34397;51.176;6.738;2022-12-07T03:52:41;3.30;76.90
48551;DHT22;34397;51.176;6.738;2022-12-07T03:55:17;3.20;77.00
48551;DHT22;34397;51.176;6.738;2022-12-07T03:57:54;3.20;77.00
48551;DHT22;34397;51.176;6.738;2022-12-07T04:00:28;3.30;77.10
48551;DHT22;34397;51.176;6.738;2022-12-07T04:03:00;3.20;77.00
48551;DHT22;34397;51.176;6.738;2022-12-07T04:05:33;3.20;77.00
48551;DHT22;34397;51.176;6.738;2022-12-07T04:08:06;3.20;76.90
48551;DHT22;34397;51.176;6.738;2022-12-07T04:10:37;3.20;76.80
48551;DHT22;34397;51.176;6.738;2022-12-07T04:13:10;3.10;76.70
48551;DHT22;34397;51.176;6.738;2022-12-07T04:15:41;3.10;76.80
48551;DHT22;34397;51.176;6.738;2022-12-07T04:18:13;3.10;76.90
48551;DHT22;34397;51.176;6.738;2022-12-07T04:20:47;3.10;77.10
48551;DHT22;34397;51.176;6.738;2022-12-07T04:23:18;3.10;77.30
48551;DHT22;34397;51.176;6.738;2022-12-07T04:25:50;3.00;77.30
48551;DHT22;34397;51.176;6.738;2022-12-07T04:28:22;3.00;77.30
48551;DHT22;34397;51.176;6.738;2022-12-07T04:30:54;3.00;77.50
48551;DHT22;34397;51.176;6.738;2022-12-07T04:33:26;3.00;77.30
48551;DHT22;34397;51.176;6.738;2022-12-07T04:35:59;3.00;77.30
48551;DHT22;34397;51.176;6.738;2022-12-07T04:38:30;3.00;77.20
48551;DHT22;34397;51.176;6.738;2022-12-07T04:41:05;3.00;77.30
48551;DHT22;34397;51.176;6.738;2022-12-07T04:43:37;3.10;77.20
48551;DHT22;34397;51.176;6.738;2022-12-07T04:46:09;3.10;77.00
48551;DHT22;34397;51.176;6.738;2022-12-07T04:48:41;3.10;77.00
48551;DHT22;34397;51.176;6.738;2022-12-07T04:51:14;3.10;77.10
48551;DHT22;34397;51.176;6.738;2022-12-07T04:53:47;3.00;77.30
48551;DHT22;34397;51.176;6.738;2022-12-07T04:56:19;3.00;77.30
48551;DHT22;34397;51.176;6.738;2022-12-07T04:58:53;3.00;77.20
48551;DHT22;34397;51.176;6.738;2022-12-07T05:01:26;3.10;77.10
48551;DHT22;34397;51.176;6.738;2022-12-07T05:03:58;3.00;77.00
48551;DHT22;34397;51.176;6.738;2022-12-07T05:06:31;3.10;77.00
48551;DHT22;34397;51.176;6.738;2022-12-07T05:09:04;3.00;76.70
48551;DHT22;34397;51.176;6.738;2022-12-07T05:11:36;3.00;76.90
48551;DHT22;34397;51.176;6.738;2022-12-07T05:14:13;3.00;77.00
48551;DHT22;34397;51.176;6.738;2022-12-07T05:16:47;3.00;77.00
48551;DHT22;34397;51.176;6.738;2022-12-07T05:19:20;3.00;77.00
48551;DHT22;34397;51.176;6.738;2022-12-07T05:21:53;3.00;76.90
48551;DHT22;34397;51.176;6.738;2022-12-07T05:24:25;3.00;76.90
48551;DHT22;34397;51.176;6.738;2022-12-07T05:26:57;3.00;77.20
48551;DHT22;34397;51.176;6.738;2022-12-07T05:29:29;3.00;76.90
48551;DHT22;34397;51.176;6.738;2022-12-07T05:32:01;3.00;76.90
48551;DHT22;34397;51.176;6.738;2022-12-07T05:34:32;3.00;76.80
48551;DHT22;34397;51.176;6.738;2022-12-07T05:37:05;2.90;76.70
48551;DHT22;34397;51.176;6.738;2022-12-07T05:39:37;2.90;76.70
48551;DHT22;34397;51.176;6.738;2022-12-07T05:42:11;2.90;76.90
48551;DHT22;34397;51.176;6.738;2022-12-07T05:44:46;2.90;76.70
48551;DHT22;34397;51.176;6.738;2022-12-07T05:47:18;2.90;76.70
48551;DHT22;34397;51.176;6.738;2022-12-07T05:49:50;2.90;76.70
48551;DHT22;34397;51.176;6.738;2022-12-07T05:52:24;2.90;76.70
48551;DHT22;34397;51.176;6.738;2022-12-07T05:54:56;2.90;76.80
48551;DHT22;34397;51.176;6.738;2022-12-07T05:57:28;2.90;76.80
48551;DHT22;34397;51.176;6.738;2022-12-07T06:00:00;2.90;76.80
48551;DHT22;34397;51.176;6.738;2022-12-07T06:02:31;2.90;76.90
48551;DHT22;34397;51.176;6.738;2022-12-07T06:05:03;2.90;76.80
48551;DHT22;34397;51.176;6.738;2022-12-07T06:07:36;2.90;76.80
48551;DHT22;34397;51.176;6.738;2022-12-07T06:10:08;3.00;76.70
48551;DHT22;34397;51.176;6.738;2022-12-07T06:12:41;3.00;76.70
48551;DHT22;34397;51.176;6.738;2022-12-07T06:15:13;3.00;76.50
48551;DHT22;34397;51.176;6.738;2022-12-07T06:17:45;3.00;76.40
48551;DHT22;34397;51.176;6.738;2022-12-07T06:20:17;3.00;76.40
48551;DHT22;34397;51.176;6.738;2022-12-07T06:22:50;3.00;76.50
48551;DHT22;34397;51.176;6.738;2022-12-07T06:25:22;3.00;76.30
48551;DHT22;34397;51.176;6.738;2022-12-07T06:27:54;3.00;76.30
48551;DHT22;34397;51.176;6.738;2022-12-07T06:30:26;3.10;76.30
48551;DHT22;34397;51.176;6.738;2022-12-07T06:32:58;3.10;76.30
48551;DHT22;34397;51.176;6.738;2022-12-07T06:35:32;3.10;76.20
48551;DHT22;34397;51.176;6.738;2022-12-07T06:38:06;3.10;76.20
48551;DHT22;34397;51.176;6.738;2022-12-07T06:40:38;3.10;76.20
48551;DHT22;34397;51.176;6.738;2022-12-07T06:43:09;3.10;76.40
48551;DHT22;34397;51.176;6.738;2022-12-07T06:45:41;3.10;76.20
48551;DHT22;34397;51.176;6.738;2022-12-07T06:48:14;3.10;76.20
48551;DHT22;34397;51.176;6.738;2022-12-07T06:50:46;3.10;76.20
48551;DHT22;34397;51.176;6.738;2022-12-07T06:53:19;3.10;76.20
48551;DHT22;34397;51.176;6.738;2022-12-07T06:55:51;3.10;76.10
48551;DHT22;34397;51.176;6.738;2022-12-07T06:58:23;3.10;76.10
48551;DHT22;34397;51.176;6.738;2022-12-07T07:00:55;3.10;76.10
48551;DHT22;34397;51.176;6.738;2022-12-07T07:03:28;3.10;76.00
48551;DHT22;34397;51.176;6.738;2022-12-07T07:06:00;3.20;76.10
48551;DHT22;34397;51.176;6.738;2022-12-07T07:08:33;3.10;76.00
48551;DHT22;34397;51.176;6.738;2022-12-07T07:11:07;3.20;76.00
48551;DHT22;34397;51.176;6.738;2022-12-07T07:13:39;3.20;75.90
48551;DHT22;34397;51.176;6.738;2022-12-07T07:16:12;3.20;75.90
48551;DHT22;34397;51.176;6.738;2022-12-07T07:18:44;3.20;75.90
48551;DHT22;34397;51.176;6.738;2022-12-07T07:21:16;3.20;75.80
48551;DHT22;34397;51.176;6.738;2022-12-07T07:23:49;3.20;75.70
48551;DHT22;34397;51.176;6.738;2022-12-07T07:26:22;3.20;75.60
48551;DHT22;34397;51.176;6.738;2022-12-07T07:28:54;3.20;75.70
48551;DHT22;34397;51.176;6.738;2022-12-07T07:31:26;3.20;75.70
48551;DHT22;34397;51.176;6.738;2022-12-07T07:33:58;3.20;75.60
48551;DHT22;34397;51.176;6.738;2022-12-07T07:36:30;3.20;75.40
48551;DHT22;34397;51.176;6.738;2022-12-07T07:39:04;3.20;75.30
48551;DHT22;34397;51.176;6.738;2022-12-07T07:41:36;3.20;75.20
48551;DHT22;34397;51.176;6.738;2022-12-07T07:44:09;3.20;75.20
48551;DHT22;34397;51.176;6.738;2022-12-07T07:46:41;3.20;75.20
48551;DHT22;34397;51.176;6.738;2022-12-07T07:49:13;3.20;75.10
48551;DHT22;34397;51.176;6.738;2022-12-07T07:51:45;3.20;75.00
48551;DHT22;34397;51.176;6.738;2022-12-07T07:54:18;3.20;74.90
48551;DHT22;34397;51.176;6.738;2022-12-07T07:56:50;3.20;74.90
48551;DHT22;34397;51.176;6.738;2022-12-07T07:59:23;3.20;75.00
48551;DHT22;34397;51.176;6.738;2022-12-07T08:01:55;3.20;74.60
48551;DHT22;34397;51.176;6.738;2022-12-07T08:04:27;3.10;74.60
48551;DHT22;34397;51.176;6.738;2022-12-07T08:06:59;3.10;74.70
48551;DHT22;34397;51.176;6.738;2022-12-07T08:09:32;3.10;75.00
48551;DHT22;34397;51.176;6.738;2022-12-07T08:12:04;3.00;75.10
48551;DHT22;34397;51.176;6.738;2022-12-07T08:14:37;3.00;75.40
48551;DHT22;34397;51.176;6.738;2022-12-07T08:17:08;2.90;75.10
48551;DHT22;34397;51.176;6.738;2022-12-07T08:19:40;2.90;75.20
48551;DHT22;34397;51.176;6.738;2022-12-07T08:22:12;2.90;75.40
48551;DHT22;34397;51.176;6.738;2022-12-07T08:24:46;2.90;75.60
48551;DHT22;34397;51.176;6.738;2022-12-07T08:27:18;2.90;75.80
48551;DHT22;34397;51.176;6.738;2022-12-07T08:29:50;2.80;76.00
48551;DHT22;34397;51.176;6.738;2022-12-07T08:32:22;2.80;76.10
48551;DHT22;34397;51.176;6.738;2022-12-07T08:34:54;2.80;76.10
48551;DHT22;34397;51.176;6.738;2022-12-07T08:37:26;2.90;76.30
48551;DHT22;34397;51.176;6.738;2022-12-07T08:39:59;2.80;76.30
48551;DHT22;34397;51.176;6.738;2022-12-07T08:42:31;2.90;76.40
48551;DHT22;34397;51.176;6.738;2022-12-07T08:45:10;2.90;76.40
48551;DHT22;34397;51.176;6.738;2022-12-07T08:47:45;2.90;76.50
48551;DHT22;34397;51.176;6.738;2022-12-07T08:50:22;2.90;76.50
48551;DHT22;34397;51.176;6.738;2022-12-07T08:52:57;2.90;76.70
48551;DHT22;34397;51.176;6.738;2022-12-07T08:55:31;2.80;77.00
48551;DHT22;34397;51.176;6.738;2022-12-07T08:58:05;2.90;77.40
48551;DHT22;34397;51.176;6.738;2022-12-07T09:00:37;2.90;77.10
48551;DHT22;34397;51.176;6.738;2022-12-07T09:03:09;3.00;77.00
48551;DHT22;34397;51.176;6.738;2022-12-07T09:05:41;3.10;76.80
48551;DHT22;34397;51.176;6.738;2022-12-07T09:08:14;3.10;76.60
48551;DHT22;34397;51.176;6.738;2022-12-07T09:10:47;3.20;76.40
48551;DHT22;34397;51.176;6.738;2022-12-07T09:13:19;3.20;76.00
48551;DHT22;34397;51.176;6.738;2022-12-07T09:15:52;3.30;76.00
48551;DHT22;34397;51.176;6.738;2022-12-07T09:18:24;3.30;76.20
48551;DHT22;34397;51.176;6.738;2022-12-07T09:20:57;3.30;76.20
48551;DHT22;34397;51.176;6.738;2022-12-07T09:23:29;3.30;76.00
48551;DHT22;34397;51.176;6.738;2022-12-07T09:26:03;3.40;76.30
48551;DHT22;34397;51.176;6.738;2022-12-07T09:28:35;3.50;76.40
48551;DHT22;34397;51.176;6.738;2022-12-07T09:31:07;3.50;75.90
48551;DHT22;34397;51.176;6.738;2022-12-07T09:33:39;3.50;75.50
48551;DHT22;34397;51.176;6.738;2022-12-07T09:36:12;3.60;75.40
48551;DHT22;34397;51.176;6.738;2022-12-07T09:38:44;3.60;75.20
48551;DHT22;34397;51.176;6.738;2022-12-07T09:41:19;3.60;75.20
48551;DHT22;34397;51.176;6.738;2022-12-07T09:43:52;3.60;75.10
48551;DHT22;34397;51.176;6.738;2022-12-07T09:46:25;3.70;75.10
48551;DHT22;34397;51.176;6.738;2022-12-07T09:49:04;3.70;74.50
48551;DHT22;34397;51.176;6.738;2022-12-07T09:51:37;3.80;74.60
48551;DHT22;34397;51.176;6.738;2022-12-07T09:54:12;3.80;74.40
48551;DHT22;34397;51.176;6.738;2022-12-07T09:56:46;3.90;74.20
48551;DHT22;34397;51.176;6.738;2022-12-07T09:59:18;3.90;73.80
48551;DHT22;34397;51.176;6.738;2022-12-07T10:01:50;3.90;73.90
48551;DHT22;34397;51.176;6.738;2022-12-07T10:04:24;3.90;73.60
48551;DHT22;34397;51.176;6.738;2022-12-07T10:06:57;3.90;73.70
48551;DHT22;34397;51.176;6.738;2022-12-07T10:09:29;3.90;73.60
48551;DHT22;34397;51.176;6.738;2022-12-07T10:12:08;3.90;73.40
48551;DHT22;34397;51.176;6.738;2022-12-07T10:14:54;3.90;72.90
48551;DHT22;34397;51.176;6.738;2022-12-07T10:17:31;3.90;73.00
48551;DHT22;34397;51.176;6.738;2022-12-07T10:20:15;4.00;73.00
48551;DHT22;34397;51.176;6.738;2022-12-07T10:23:01;4.00;72.60
48551;DHT22;34397;51.176;6.738;2022-12-07T10:25:36;4.00;72.80
48551;DHT22;34397;51.176;6.738;2022-12-07T10:28:17;4.00;72.80
48551;DHT22;34397;51.176;6.738;2022-12-07T10:30:52;4.10;72.80
48551;DHT22;34397;51.176;6.738;2022-12-07T10:33:32;4.10;72.90
48551;DHT22;34397;51.176;6.738;2022-12-07T10:36:18;4.10;72.60
48551;DHT22;34397;51.176;6.738;2022-12-07T10:38:53;4.10;72.70
48551;DHT22;34397;51.176;6.738;2022-12-07T10:41:29;4.20;72.30
48551;DHT22;34397;51.176;6.738;2022-12-07T10:44:03;4.20;72.00
48551;DHT22;34397;51.176;6.738;2022-12-07T10:46:59;4.20;72.10
48551;DHT22;34397;51.176;6.738;2022-12-07T10:50:02;4.20;71.80
48551;DHT22;34397;51.176;6.738;2022-12-07T10:52:53;4.20;71.60
48551;DHT22;34397;51.176;6.738;2022-12-07T10:55:41;4.20;71.80
48551;DHT22;34397;51.176;6.738;2022-12-07T10:58:36;4.20;71.70
48551;DHT22;34397;51.176;6.738;2022-12-07T11:01:23;4.10;72.10
48551;DHT22;34397;51.176;6.738;2022-12-07T11:04:18;4.20;72.40
48551;DHT22;34397;51.176;6.738;2022-12-07T11:07:01;4.30;72.60
48551;DHT22;34397;51.176;6.738;2022-12-07T11:10:02;4.40;72.30
48551;DHT22;34397;51.176;6.738;2022-12-07T11:12:47;4.50;72.30
48551;DHT22;34397;51.176;6.738;2022-12-07T11:15:29;4.70;73.00
48551;DHT22;34397;51.176;6.738;2022-12-07T11:18:11;5.00;74.00
48551;DHT22;34397;51.176;6.738;2022-12-07T11:20:51;5.40;70.50
48551;DHT22;34397;51.176;6.738;2022-12-07T11:23:34;5.80;70.90
48551;DHT22;34397;51.176;6.738;2022-12-07T11:26:20;6.20;67.70
48551;DHT22;34397;51.176;6.738;2022-12-07T11:29:11;6.60;65.70
48551;DHT22;34397;51.176;6.738;2022-12-07T11:31:58;6.70;63.50
48551;DHT22;34397;51.176;6.738;2022-12-07T11:34:44;6.90;62.90
48551;DHT22;34397;51.176;6.738;2022-12-07T11:37:30;6.90;62.60
48551;DHT22;34397;51.176;6.738;2022-12-07T11:40:05;6.90;62.20
48551;DHT22;34397;51.176;6.738;2022-12-07T11:42:51;6.80;62.00
48551;DHT22;34397;51.176;6.738;2022-12-07T11:45:27;6.70;62.00
48551;DHT22;34397;51.176;6.738;2022-12-07T11:48:02;6.60;61.40
48551;DHT22;34397;51.176;6.738;2022-12-07T11:50:40;6.40;62.60
48551;DHT22;34397;51.176;6.738;2022-12-07T11:53:17;6.40;63.20
48551;DHT22;34397;51.176;6.738;2022-12-07T11:55:53;6.40;63.90
48551;DHT22;34397;51.176;6.738;2022-12-07T11:58:44;6.50;64.30
48551;DHT22;34397;51.176;6.738;2022-12-07T12:01:29;6.60;65.60
48551;DHT22;34397;51.176;6.738;2022-12-07T12:04:23;7.00;65.90
48551;DHT22;34397;51.176;6.738;2022-12-07T12:07:03;7.40;64.60
48551;DHT22;34397;51.176;6.738;2022-12-07T12:09:44;7.70;63.20
48551;DHT22;34397;51.176;6.738;2022-12-07T12:12:37;8.00;61.50
48551;DHT22;34397;51.176;6.738;2022-12-07T12:15:38;8.20;58.80
48551;DHT22;34397;51.176;6.738;2022-12-07T12:18:31;8.40;59.30
48551;DHT22;34397;51.176;6.738;2022-12-07T12:21:12;8.50;58.60
48551;DHT22;34397;51.176;6.738;2022-12-07T12:23:50;8.50;57.80
48551;DHT22;34397;51.176;6.738;2022-12-07T12:26:28;8.50;56.70
48551;DHT22;34397;51.176;6.738;2022-12-07T12:29:03;8.50;58.00
48551;DHT22;34397;51.176;6.738;2022-12-07T12:31:39;8.90;58.30
48551;DHT22;34397;51.176;6.738;2022-12-07T12:34:33;9.10;57.90
48551;DHT22;34397;51.176;6.738;2022-12-07T12:37:41;9.30;56.90
48551;DHT22;34397;51.176;6.738;2022-12-07T12:40:42;9.50;56.10
48551;DHT22;34397;51.176;6.738;2022-12-07T12:43:40;9.70;55.00
48551;DHT22;34397;51.176;6.738;2022-12-07T12:46:50;9.80;54.90
48551;DHT22;34397;51.176;6.738;2022-12-07T12:49:35;9.80;53.70
48551;DHT22;34397;51.176;6.738;2022-12-07T12:58:34;9.30;52.30
48551;DHT22;34397;51.176;6.738;2022-12-07T13:04:28;8.80;54.50
48551;DHT22;34397;51.176;6.738;2022-12-07T13:10:40;8.10;55.80
48551;DHT22;34397;51.176;6.738;2022-12-07T13:13:32;7.80;56.30
48551;DHT22;34397;51.176;6.738;2022-12-07T13:22:40;7.10;58.30
48551;DHT22;34397;51.176;6.738;2022-12-07T13:25:34;7.00;58.80
48551;DHT22;34397;51.176;6.738;2022-12-07T13:28:15;6.90;59.00
48551;DHT22;34397;51.176;6.738;2022-12-07T13:31:00;6.60;59.40
48551;DHT22;34397;51.176;6.738;2022-12-07T13:33:43;6.30;60.50
48551;DHT22;34397;51.176;6.738;2022-12-07T13:36:22;5.90;61.40
48551;DHT22;34397;51.176;6.738;2022-12-07T13:38:56;5.80;62.20
48551;DHT22;34397;51.176;6.738;2022-12-07T13:41:29;5.90;62.50
48551;DHT22;34397;51.176;6.738;2022-12-07T13:44:07;5.90;62.70
48551;DHT22;34397;51.176;6.738;2022-12-07T13:46:47;5.90;62.70
48551;DHT22;34397;51.176;6.738;2022-12-07T13:49:24;5.90;62.60
48551;DHT22;34397;51.176;6.738;2022-12-07T13:52:13;6.00;62.40
48551;DHT22;34397;51.176;6.738;2022-12-07T13:54:49;5.80;61.90
48551;DHT22;34397;51.176;6.738;2022-12-07T13:57:28;5.90;62.40
48551;DHT22;34397;51.176;6.738;2022-12-07T14:00:02;5.90;62.50
48551;DHT22;34397;51.176;6.738;2022-12-07T14:02:56;5.90;62.40
48551;DHT22;34397;51.176;6.738;2022-12-07T14:05:30;5.90;62.30
48551;DHT22;34397;51.176;6.738;2022-12-07T14:08:05;5.90;62.50
48551;DHT22;34397;51.176;6.738;2022-12-07T14:10:55;5.90;62.40
48551;DHT22;34397;51.176;6.738;2022-12-07T14:13:31;5.80;62.70
48551;DHT22;34397;51.176;6.738;2022-12-07T14:16:19;5.80;63.00
48551;DHT22;34397;51.176;6.738;2022-12-07T14:18:58;5.80;63.30
48551;DHT22;34397;51.176;6.738;2022-12-07T14:21:33;5.80;63.10
48551;DHT22;34397;51.176;6.738;2022-12-07T14:24:17;5.90;62.70
48551;DHT22;34397;51.176;6.738;2022-12-07T14:26:50;5.90;62.50
48551;DHT22;34397;51.176;6.738;2022-12-07T14:29:31;5.80;63.20
48551;DHT22;34397;51.176;6.738;2022-12-07T14:32:23;5.80;63.00
48551;DHT22;34397;51.176;6.738;2022-12-07T14:35:03;5.70;62.90
48551;DHT22;34397;51.176;6.738;2022-12-07T14:37:43;5.60;63.00
48551;DHT22;34397;51.176;6.738;2022-12-07T14:40:18;5.60;63.30
48551;DHT22;34397;51.176;6.738;2022-12-07T14:42:53;5.50;63.30
48551;DHT22;34397;51.176;6.738;2022-12-07T14:45:27;5.50;63.60
48551;DHT22;34397;51.176;6.738;2022-12-07T14:47:59;5.40;63.60
48551;DHT22;34397;51.176;6.738;2022-12-07T14:50:37;5.40;64.00
48551;DHT22;34397;51.176;6.738;2022-12-07T14:53:12;5.30;64.30
48551;DHT22;34397;51.176;6.738;2022-12-07T14:55:45;5.30;64.50
48551;DHT22;34397;51.176;6.738;2022-12-07T14:58:18;5.30;64.50
48551;DHT22;34397;51.176;6.738;2022-12-07T15:00:50;5.30;64.40
48551;DHT22;34397;51.176;6.738;2022-12-07T15:03:22;5.30;64.40
48551;DHT22;34397;51.176;6.738;2022-12-07T15:05:55;5.30;64.60
48551;DHT22;34397;51.176;6.738;2022-12-07T15:08:27;5.30;64.40
48551;DHT22;34397;51.176;6.738;2022-12-07T15:10:59;5.40;64.40
48551;DHT22;34397;51.176;6.738;2022-12-07T15:13:31;5.40;64.30
48551;DHT22;34397;51.176;6.738;2022-12-07T15:16:21;5.40;64.40
48551;DHT22;34397;51.176;6.738;2022-12-07T15:18:53;5.40;64.50
48551;DHT22;34397;51.176;6.738;2022-12-07T15:21:26;5.40;64.60
48551;DHT22;34397;51.176;6.738;2022-12-07T15:23:58;5.40;64.70
48551;DHT22;34397;51.176;6.738;2022-12-07T15:26:30;5.40;64.70
48551;DHT22;34397;51.176;6.738;2022-12-07T15:29:02;5.40;64.80
48551;DHT22;34397;51.176;6.738;2022-12-07T15:31:34;5.40;64.90
48551;DHT22;34397;51.176;6.738;2022-12-07T15:34:06;5.40;64.90
48551;DHT22;34397;51.176;6.738;2022-12-07T15:36:39;5.30;64.80
48551;DHT22;34397;51.176;6.738;2022-12-07T15:39:11;5.30;64.90
48551;DHT22;34397;51.176;6.738;2022-12-07T15:41:43;5.30;64.70
48551;DHT22;34397;51.176;6.738;2022-12-07T15:44:15;5.30;64.70
48551;DHT22;34397;51.176;6.738;2022-12-07T15:47:05;5.20;64.90
48551;DHT22;34397;51.176;6.738;2022-12-07T15:49:37;5.10;65.10
48551;DHT22;34397;51.176;6.738;2022-12-07T15:52:10;5.00;66.10
48551;DHT22;34397;51.176;6.738;2022-12-07T15:54:43;4.90;65.80
48551;DHT22;34397;51.176;6.738;2022-12-07T15:57:15;4.80;66.10
48551;DHT22;34397;51.176;6.738;2022-12-07T15:59:47;4.70;66.30
48551;DHT22;34397;51.176;6.738;2022-12-07T16:02:18;4.70;66.60
48551;DHT22;34397;51.176;6.738;2022-12-07T16:04:50;4.60;66.60
48551;DHT22;34397;51.176;6.738;2022-12-07T16:07:24;4.60;66.90
48551;DHT22;34397;51.176;6.738;2022-12-07T16:09:56;4.50;67.20
48551;DHT22;34397;51.176;6.738;2022-12-07T16:12:28;4.50;67.40
48551;DHT22;34397;51.176;6.738;2022-12-07T16:15:00;4.50;67.30
48551;DHT22;34397;51.176;6.738;2022-12-07T16:17:31;4.50;67.60
48551;DHT22;34397;51.176;6.738;2022-12-07T16:20:04;4.40;67.80
48551;DHT22;34397;51.176;6.738;2022-12-07T16:22:40;4.40;68.20
48551;DHT22;34397;51.176;6.738;2022-12-07T16:25:11;4.40;68.30
48551;DHT22;34397;51.176;6.738;2022-12-07T16:27:43;4.40;68.40
48551;DHT22;34397;51.176;6.738;2022-12-07T16:30:15;4.40;68.10
48551;DHT22;34397;51.176;6.738;2022-12-07T16:32:47;4.40;68.30
48551;DHT22;34397;51.176;6.738;2022-12-07T16:35:19;4.40;68.50
48551;DHT22;34397;51.176;6.738;2022-12-07T16:37:52;4.40;68.60
48551;DHT22;34397;51.176;6.738;2022-12-07T16:40:24;4.40;68.50
48551;DHT22;34397;51.176;6.738;2022-12-07T16:42:55;4.40;69.10
48551;DHT22;34397;51.176;6.738;2022-12-07T16:45:27;4.40;68.60
48551;DHT22;34397;51.176;6.738;2022-12-07T16:47:59;4.40;68.60
48551;DHT22;34397;51.176;6.738;2022-12-07T16:50:31;4.50;68.90
48551;DHT22;34397;51.176;6.738;2022-12-07T16:53:05;4.40;69.10
48551;DHT22;34397;51.176;6.738;2022-12-07T16:55:37;4.50;69.20
48551;DHT22;34397;51.176;6.738;2022-12-07T16:58:09;4.50;69.50
48551;DHT22;34397;51.176;6.738;2022-12-07T17:00:42;4.50;69.30
48551;DHT22;34397;51.176;6.738;2022-12-07T17:03:15;4.40;69.50
48551;DHT22;34397;51.176;6.738;2022-12-07T17:05:47;4.30;70.10